sensor_id;sensor_type;location;lat;lon;timestamp;P1;durP1;ratioP1;P2;durP2;ratioP2
85506;SDS011;75915;41.988;21.460;2024-03-08T00:02:23;53.97;;;28.45;;
85506;SDS011;75915;41.988;21.460;2024-03-08T00:04:49;59.58;;;32.58;;
85506;SDS011;75915;41.988;21.460;2024-03-08T00:07:14;58.72;;;31.00;;
85506;SDS011;75915;41.988;21.460;2024-03-08T00:09:40;58.72;;;30.40;;
85506;SDS011;75915;41.988;21.460;2024-03-08T00:12:05;53.38;;;28.23;;
85506;SDS011;75915;41.988;21.460;2024-03-08T00:14:31;53.15;;;28.90;;
85506;SDS011;75915;41.988;21.460;2024-03-08T00:16:58;52.55;;;28.00;;
85506;SDS011;75915;41.988;21.460;2024-03-08T00:19:23;42.45;;;24.23;;
85506;SDS011;75915;41.988;21.460;2024-03-08T00:21:49;48.67;;;25.42;;
85506;SDS011;75915;41.988;21.460;2024-03-08T00:24:14;55.55;;;26.90;;
85506;SDS011;75915;41.988;21.460;2024-03-08T00:26:40;52.85;;;25.15;;
85506;SDS011;75915;41.988;21.460;2024-03-08T00:29:07;52.25;;;24.58;;
85506;SDS011;75915;41.988;21.460;2024-03-08T00:31:35;38.35;;;21.25;;
85506;SDS011;75915;41.988;21.460;2024-03-08T00:34:00;40.17;;;20.75;;
85506;SDS011;75915;41.988;21.460;2024-03-08T00:36:26;41.10;;;18.73;;
85506;SDS011;75915;41.988;21.460;2024-03-08T00:38:52;42.58;;;21.17;;
85506;SDS011;75915;41.988;21.460;2024-03-08T00:41:18;38.33;;;20.20;;
85506;SDS011;75915;41.988;21.460;2024-03-08T00:43:43;43.70;;;19.65;;
85506;SDS011;75915;41.988;21.460;2024-03-08T00:46:09;41.15;;;18.08;;
85506;SDS011;75915;41.988;21.460;2024-03-08T00:48:34;35.38;;;18.70;;
85506;SDS011;75915;41.988;21.460;2024-03-08T00:51:03;34.95;;;16.98;;
85506;SDS011;75915;41.988;21.460;2024-03-08T00:53:29;30.52;;;14.88;;
85506;SDS011;75915;41.988;21.460;2024-03-08T00:55:55;25.15;;;12.40;;
85506;SDS011;75915;41.988;21.460;2024-03-08T00:58:22;23.83;;;10.13;;
85506;SDS011;75915;41.988;21.460;2024-03-08T01:00:48;21.88;;;9.73;;
85506;SDS011;75915;41.988;21.460;2024-03-08T01:03:15;25.98;;;9.40;;
85506;SDS011;75915;41.988;21.460;2024-03-08T01:05:40;25.13;;;10.07;;
85506;SDS011;75915;41.988;21.460;2024-03-08T01:08:07;17.83;;;8.40;;
85506;SDS011;75915;41.988;21.460;2024-03-08T01:10:34;18.77;;;8.48;;
85506;SDS011;75915;41.988;21.460;2024-03-08T01:13:02;24.58;;;9.38;;
85506;SDS011;75915;41.988;21.460;2024-03-08T01:15:27;22.08;;;10.35;;
85506;SDS011;75915;41.988;21.460;2024-03-08T01:17:53;17.40;;;8.82;;
85506;SDS011;75915;41.988;21.460;2024-03-08T01:20:19;34.78;;;10.88;;
85506;SDS011;75915;41.988;21.460;2024-03-08T01:22:46;19.02;;;10.77;;
85506;SDS011;75915;41.988;21.460;2024-03-08T01:25:11;20.30;;;9.55;;
85506;SDS011;75915;41.988;21.460;2024-03-08T01:27:37;22.67;;;10.05;;
85506;SDS011;75915;41.988;21.460;2024-03-08T01:30:02;19.40;;;9.90;;
85506;SDS011;75915;41.988;21.460;2024-03-08T01:32:29;21.70;;;10.27;;
85506;SDS011;75915;41.988;21.460;2024-03-08T01:34:55;22.80;;;10.07;;
85506;SDS011;75915;41.988;21.460;2024-03-08T01:37:20;16.08;;;8.57;;
85506;SDS011;75915;41.988;21.460;2024-03-08T01:39:46;19.05;;;8.27;;
85506;SDS011;75915;41.988;21.460;2024-03-08T01:42:11;16.48;;;7.53;;
85506;SDS011;75915;41.988;21.460;2024-03-08T01:44:40;21.05;;;8.98;;
85506;SDS011;75915;41.988;21.460;2024-03-08T01:47:06;18.70;;;8.40;;
85506;SDS011;75915;41.988;21.460;2024-03-08T01:51:58;16.63;;;7.32;;
85506;SDS011;75915;41.988;21.460;2024-03-08T01:54:24;15.15;;;7.55;;
85506;SDS011;75915;41.988;21.460;2024-03-08T01:56:51;17.58;;;7.35;;
85506;SDS011;75915;41.988;21.460;2024-03-08T01:59:18;18.27;;;8.30;;
85506;SDS011;75915;41.988;21.460;2024-03-08T02:01:44;15.65;;;8.00;;
85506;SDS011;75915;41.988;21.460;2024-03-08T02:04:10;22.77;;;8.68;;
85506;SDS011;75915;41.988;21.460;2024-03-08T02:06:36;19.50;;;8.18;;
85506;SDS011;75915;41.988;21.460;2024-03-08T02:09:03;16.13;;;8.13;;
85506;SDS011;75915;41.988;21.460;2024-03-08T02:11:33;15.85;;;6.97;;
85506;SDS011;75915;41.988;21.460;2024-03-08T02:14:01;15.05;;;6.28;;
85506;SDS011;75915;41.988;21.460;2024-03-08T02:16:26;16.17;;;6.70;;
85506;SDS011;75915;41.988;21.460;2024-03-08T02:18:56;20.80;;;8.40;;
85506;SDS011;75915;41.988;21.460;2024-03-08T02:21:21;20.83;;;7.00;;
85506;SDS011;75915;41.988;21.460;2024-03-08T02:23:47;16.55;;;7.28;;
85506;SDS011;75915;41.988;21.460;2024-03-08T02:26:12;16.42;;;7.85;;
85506;SDS011;75915;41.988;21.460;2024-03-08T02:28:38;17.50;;;8.20;;
85506;SDS011;75915;41.988;21.460;2024-03-08T02:31:04;13.50;;;6.78;;
85506;SDS011;75915;41.988;21.460;2024-03-08T02:33:33;15.52;;;8.05;;
85506;SDS011;75915;41.988;21.460;2024-03-08T02:35:59;12.60;;;7.18;;
85506;SDS011;75915;41.988;21.460;2024-03-08T02:38:26;23.38;;;7.13;;
85506;SDS011;75915;41.988;21.460;2024-03-08T02:40:52;16.63;;;7.32;;
85506;SDS011;75915;41.988;21.460;2024-03-08T02:43:19;16.77;;;7.95;;
85506;SDS011;75915;41.988;21.460;2024-03-08T02:45:45;13.80;;;7.05;;
85506;SDS011;75915;41.988;21.460;2024-03-08T02:48:11;14.90;;;7.63;;
85506;SDS011;75915;41.988;21.460;2024-03-08T02:50:38;15.93;;;7.43;;
85506;SDS011;75915;41.988;21.460;2024-03-08T02:53:13;18.15;;;6.90;;
85506;SDS011;75915;41.988;21.460;2024-03-08T02:55:39;22.27;;;7.43;;
85506;SDS011;75915;41.988;21.460;2024-03-08T02:58:06;25.13;;;7.50;;
85506;SDS011;75915;41.988;21.460;2024-03-08T03:00:35;15.70;;;7.00;;
85506;SDS011;75915;41.988;21.460;2024-03-08T03:03:02;12.80;;;6.18;;
85506;SDS011;75915;41.988;21.460;2024-03-08T03:05:28;13.88;;;6.93;;
85506;SDS011;75915;41.988;21.460;2024-03-08T03:07:54;16.90;;;7.25;;
85506;SDS011;75915;41.988;21.460;2024-03-08T03:10:20;14.10;;;6.95;;
85506;SDS011;75915;41.988;21.460;2024-03-08T03:12:47;13.52;;;6.57;;
85506;SDS011;75915;41.988;21.460;2024-03-08T03:15:14;20.48;;;6.90;;
85506;SDS011;75915;41.988;21.460;2024-03-08T03:17:45;15.77;;;6.75;;
85506;SDS011;75915;41.988;21.460;2024-03-08T03:20:16;13.18;;;6.95;;
85506;SDS011;75915;41.988;21.460;2024-03-08T03:22:48;16.60;;;7.18;;
85506;SDS011;75915;41.988;21.460;2024-03-08T03:25:17;17.00;;;6.97;;
85506;SDS011;75915;41.988;21.460;2024-03-08T03:27:53;12.18;;;6.57;;
85506;SDS011;75915;41.988;21.460;2024-03-08T03:30:23;13.93;;;6.57;;
85506;SDS011;75915;41.988;21.460;2024-03-08T03:32:51;20.48;;;8.00;;
85506;SDS011;75915;41.988;21.460;2024-03-08T03:35:18;15.73;;;7.20;;
85506;SDS011;75915;41.988;21.460;2024-03-08T03:37:46;17.63;;;7.90;;
85506;SDS011;75915;41.988;21.460;2024-03-08T03:40:32;21.25;;;7.53;;
85506;SDS011;75915;41.988;21.460;2024-03-08T03:42:58;18.65;;;9.25;;
85506;SDS011;75915;41.988;21.460;2024-03-08T03:45:24;20.38;;;8.00;;
85506;SDS011;75915;41.988;21.460;2024-03-08T03:47:50;21.80;;;9.20;;
85506;SDS011;75915;41.988;21.460;2024-03-08T03:50:17;18.17;;;7.65;;
85506;SDS011;75915;41.988;21.460;2024-03-08T03:52:45;19.33;;;8.18;;
85506;SDS011;75915;41.988;21.460;2024-03-08T03:55:13;16.00;;;7.93;;
85506;SDS011;75915;41.988;21.460;2024-03-08T03:57:40;22.88;;;9.20;;
85506;SDS011;75915;41.988;21.460;2024-03-08T04:00:06;18.63;;;9.38;;
85506;SDS011;75915;41.988;21.460;2024-03-08T04:02:35;18.42;;;9.07;;
85506;SDS011;75915;41.988;21.460;2024-03-08T04:05:05;20.38;;;8.30;;
85506;SDS011;75915;41.988;21.460;2024-03-08T04:07:32;15.13;;;8.20;;
85506;SDS011;75915;41.988;21.460;2024-03-08T04:09:58;14.98;;;8.15;;
85506;SDS011;75915;41.988;21.460;2024-03-08T04:12:23;16.13;;;8.23;;
85506;SDS011;75915;41.988;21.460;2024-03-08T04:14:49;23.73;;;9.23;;
85506;SDS011;75915;41.988;21.460;2024-03-08T04:17:14;19.35;;;9.02;;
85506;SDS011;75915;41.988;21.460;2024-03-08T04:19:40;19.73;;;9.63;;
85506;SDS011;75915;41.988;21.460;2024-03-08T04:22:06;18.73;;;9.27;;
85506;SDS011;75915;41.988;21.460;2024-03-08T04:24:32;16.58;;;8.20;;
85506;SDS011;75915;41.988;21.460;2024-03-08T04:27:00;18.85;;;8.27;;
85506;SDS011;75915;41.988;21.460;2024-03-08T04:29:26;20.55;;;8.73;;
85506;SDS011;75915;41.988;21.460;2024-03-08T04:31:52;17.83;;;8.35;;
85506;SDS011;75915;41.988;21.460;2024-03-08T04:34:19;20.02;;;8.73;;
85506;SDS011;75915;41.988;21.460;2024-03-08T04:36:46;17.92;;;9.13;;
85506;SDS011;75915;41.988;21.460;2024-03-08T04:39:13;18.52;;;8.90;;
85506;SDS011;75915;41.988;21.460;2024-03-08T04:41:39;21.77;;;9.95;;
85506;SDS011;75915;41.988;21.460;2024-03-08T04:44:05;18.30;;;9.18;;
85506;SDS011;75915;41.988;21.460;2024-03-08T04:46:31;22.30;;;9.10;;
85506;SDS011;75915;41.988;21.460;2024-03-08T04:48:56;20.65;;;9.75;;
85506;SDS011;75915;41.988;21.460;2024-03-08T04:51:23;22.63;;;9.65;;
85506;SDS011;75915;41.988;21.460;2024-03-08T04:53:50;20.73;;;8.02;;
85506;SDS011;75915;41.988;21.460;2024-03-08T04:56:15;20.85;;;10.80;;
85506;SDS011;75915;41.988;21.460;2024-03-08T04:58:45;25.30;;;10.25;;
85506;SDS011;75915;41.988;21.460;2024-03-08T05:01:13;24.10;;;9.80;;
85506;SDS011;75915;41.988;21.460;2024-03-08T05:03:39;23.92;;;10.60;;
85506;SDS011;75915;41.988;21.460;2024-03-08T05:06:11;22.60;;;11.20;;
85506;SDS011;75915;41.988;21.460;2024-03-08T05:08:37;25.98;;;10.25;;
85506;SDS011;75915;41.988;21.460;2024-03-08T05:11:02;24.52;;;10.48;;
85506;SDS011;75915;41.988;21.460;2024-03-08T05:13:31;23.48;;;10.20;;
85506;SDS011;75915;41.988;21.460;2024-03-08T05:15:57;20.48;;;10.02;;
85506;SDS011;75915;41.988;21.460;2024-03-08T05:18:23;20.38;;;8.82;;
85506;SDS011;75915;41.988;21.460;2024-03-08T05:20:49;19.65;;;8.60;;
85506;SDS011;75915;41.988;21.460;2024-03-08T05:23:16;22.02;;;9.80;;
85506;SDS011;75915;41.988;21.460;2024-03-08T05:25:44;18.65;;;9.65;;
85506;SDS011;75915;41.988;21.460;2024-03-08T05:28:12;20.80;;;10.57;;
85506;SDS011;75915;41.988;21.460;2024-03-08T05:30:38;17.85;;;9.27;;
85506;SDS011;75915;41.988;21.460;2024-03-08T05:33:04;23.00;;;9.40;;
85506;SDS011;75915;41.988;21.460;2024-03-08T05:35:29;21.40;;;9.27;;
85506;SDS011;75915;41.988;21.460;2024-03-08T05:37:55;19.20;;;9.30;;
85506;SDS011;75915;41.988;21.460;2024-03-08T05:40:21;18.58;;;10.23;;
85506;SDS011;75915;41.988;21.460;2024-03-08T05:42:47;19.88;;;10.32;;
85506;SDS011;75915;41.988;21.460;2024-03-08T05:45:12;25.73;;;12.82;;
85506;SDS011;75915;41.988;21.460;2024-03-08T05:47:40;21.63;;;10.65;;
85506;SDS011;75915;41.988;21.460;2024-03-08T05:50:08;44.35;;;22.15;;
85506;SDS011;75915;41.988;21.460;2024-03-08T05:52:36;21.50;;;10.57;;
85506;SDS011;75915;41.988;21.460;2024-03-08T05:55:04;22.77;;;11.80;;
85506;SDS011;75915;41.988;21.460;2024-03-08T05:57:33;23.05;;;10.75;;
85506;SDS011;75915;41.988;21.460;2024-03-08T05:59:58;21.70;;;9.88;;
85506;SDS011;75915;41.988;21.460;2024-03-08T06:02:24;42.55;;;17.90;;
85506;SDS011;75915;41.988;21.460;2024-03-08T06:04:49;43.33;;;22.42;;
85506;SDS011;75915;41.988;21.460;2024-03-08T06:07:16;27.88;;;14.30;;
85506;SDS011;75915;41.988;21.460;2024-03-08T06:12:11;21.55;;;10.82;;
85506;SDS011;75915;41.988;21.460;2024-03-08T06:14:36;17.20;;;9.05;;
85506;SDS011;75915;41.988;21.460;2024-03-08T06:17:02;24.48;;;10.05;;
85506;SDS011;75915;41.988;21.460;2024-03-08T06:19:32;20.65;;;9.65;;
85506;SDS011;75915;41.988;21.460;2024-03-08T06:21:57;18.30;;;9.20;;
85506;SDS011;75915;41.988;21.460;2024-03-08T06:24:23;22.58;;;8.95;;
85506;SDS011;75915;41.988;21.460;2024-03-08T06:29:14;22.85;;;9.93;;
85506;SDS011;75915;41.988;21.460;2024-03-08T06:31:40;20.60;;;9.93;;
85506;SDS011;75915;41.988;21.460;2024-03-08T06:34:06;16.00;;;8.60;;
85506;SDS011;75915;41.988;21.460;2024-03-08T06:36:33;14.68;;;7.25;;
85506;SDS011;75915;41.988;21.460;2024-03-08T06:38:59;18.20;;;8.45;;
85506;SDS011;75915;41.988;21.460;2024-03-08T06:41:25;19.25;;;7.97;;
85506;SDS011;75915;41.988;21.460;2024-03-08T06:43:51;14.90;;;8.02;;
85506;SDS011;75915;41.988;21.460;2024-03-08T06:48:42;15.85;;;8.60;;
85506;SDS011;75915;41.988;21.460;2024-03-08T06:53:36;24.10;;;10.60;;
85506;SDS011;75915;41.988;21.460;2024-03-08T06:56:01;18.33;;;9.07;;
85506;SDS011;75915;41.988;21.460;2024-03-08T07:00:53;13.32;;;7.25;;
85506;SDS011;75915;41.988;21.460;2024-03-08T07:03:19;18.45;;;8.30;;
85506;SDS011;75915;41.988;21.460;2024-03-08T07:05:44;17.95;;;8.45;;
85506;SDS011;75915;41.988;21.460;2024-03-08T07:08:10;20.35;;;8.93;;
85506;SDS011;75915;41.988;21.460;2024-03-08T07:10:39;15.40;;;8.35;;
85506;SDS011;75915;41.988;21.460;2024-03-08T07:13:06;16.13;;;7.97;;
85506;SDS011;75915;41.988;21.460;2024-03-08T07:15:35;15.20;;;7.93;;
85506;SDS011;75915;41.988;21.460;2024-03-08T07:18:01;18.80;;;8.80;;
85506;SDS011;75915;41.988;21.460;2024-03-08T07:20:28;18.85;;;7.80;;
85506;SDS011;75915;41.988;21.460;2024-03-08T07:22:55;14.02;;;7.55;;
85506;SDS011;75915;41.988;21.460;2024-03-08T07:25:20;15.88;;;8.02;;
85506;SDS011;75915;41.988;21.460;2024-03-08T07:27:49;15.88;;;9.05;;
85506;SDS011;75915;41.988;21.460;2024-03-08T07:30:36;23.42;;;8.18;;
85506;SDS011;75915;41.988;21.460;2024-03-08T07:33:24;17.23;;;8.25;;
85506;SDS011;75915;41.988;21.460;2024-03-08T07:35:51;13.70;;;7.88;;
85506;SDS011;75915;41.988;21.460;2024-03-08T07:38:17;19.55;;;9.13;;
85506;SDS011;75915;41.988;21.460;2024-03-08T07:40:46;20.83;;;8.95;;
85506;SDS011;75915;41.988;21.460;2024-03-08T07:43:14;19.27;;;8.98;;
85506;SDS011;75915;41.988;21.460;2024-03-08T07:45:41;19.42;;;8.60;;
85506;SDS011;75915;41.988;21.460;2024-03-08T07:48:07;16.30;;;8.00;;
85506;SDS011;75915;41.988;21.460;2024-03-08T07:50:38;15.63;;;8.18;;
85506;SDS011;75915;41.988;21.460;2024-03-08T07:53:06;15.35;;;7.95;;
85506;SDS011;75915;41.988;21.460;2024-03-08T07:55:33;21.70;;;8.52;;
85506;SDS011;75915;41.988;21.460;2024-03-08T07:58:00;21.13;;;9.45;;
85506;SDS011;75915;41.988;21.460;2024-03-08T08:00:26;20.63;;;9.45;;
85506;SDS011;75915;41.988;21.460;2024-03-08T08:02:53;18.98;;;9.88;;
85506;SDS011;75915;41.988;21.460;2024-03-08T08:05:19;20.27;;;9.35;;
85506;SDS011;75915;41.988;21.460;2024-03-08T08:07:44;20.33;;;8.90;;
85506;SDS011;75915;41.988;21.460;2024-03-08T08:10:11;17.40;;;8.70;;
85506;SDS011;75915;41.988;21.460;2024-03-08T08:12:49;18.65;;;8.57;;
85506;SDS011;75915;41.988;21.460;2024-03-08T08:15:15;24.88;;;9.70;;
85506;SDS011;75915;41.988;21.460;2024-03-08T08:17:41;17.63;;;8.90;;
85506;SDS011;75915;41.988;21.460;2024-03-08T08:20:09;17.17;;;8.18;;
85506;SDS011;75915;41.988;21.460;2024-03-08T08:22:42;17.92;;;9.73;;
85506;SDS011;75915;41.988;21.460;2024-03-08T08:25:10;20.98;;;10.30;;
85506;SDS011;75915;41.988;21.460;2024-03-08T08:27:38;21.05;;;9.40;;
85506;SDS011;75915;41.988;21.460;2024-03-08T08:30:10;22.48;;;11.35;;
85506;SDS011;75915;41.988;21.460;2024-03-08T08:32:36;22.58;;;10.32;;
85506;SDS011;75915;41.988;21.460;2024-03-08T08:37:32;21.45;;;10.32;;
85506;SDS011;75915;41.988;21.460;2024-03-08T08:40:03;21.63;;;10.43;;
85506;SDS011;75915;41.988;21.460;2024-03-08T08:42:35;21.45;;;10.13;;
85506;SDS011;75915;41.988;21.460;2024-03-08T08:45:04;23.35;;;10.13;;
85506;SDS011;75915;41.988;21.460;2024-03-08T08:47:34;20.58;;;10.20;;
85506;SDS011;75915;41.988;21.460;2024-03-08T08:50:00;23.88;;;10.68;;
85506;SDS011;75915;41.988;21.460;2024-03-08T08:52:26;24.23;;;12.13;;
85506;SDS011;75915;41.988;21.460;2024-03-08T08:54:54;21.25;;;10.07;;
85506;SDS011;75915;41.988;21.460;2024-03-08T08:57:23;14.85;;;7.45;;
85506;SDS011;75915;41.988;21.460;2024-03-08T08:59:48;20.85;;;9.85;;
85506;SDS011;75915;41.988;21.460;2024-03-08T09:04:41;25.88;;;8.77;;
85506;SDS011;75915;41.988;21.460;2024-03-08T09:07:09;18.05;;;9.20;;
85506;SDS011;75915;41.988;21.460;2024-03-08T09:09:34;18.58;;;9.02;;
85506;SDS011;75915;41.988;21.460;2024-03-08T09:12:02;17.45;;;8.82;;
85506;SDS011;75915;41.988;21.460;2024-03-08T09:14:28;15.40;;;8.80;;
85506;SDS011;75915;41.988;21.460;2024-03-08T09:16:57;17.65;;;9.23;;
85506;SDS011;75915;41.988;21.460;2024-03-08T09:19:23;20.00;;;9.85;;
85506;SDS011;75915;41.988;21.460;2024-03-08T09:21:51;18.15;;;9.30;;
85506;SDS011;75915;41.988;21.460;2024-03-08T09:24:18;18.85;;;9.18;;
85506;SDS011;75915;41.988;21.460;2024-03-08T09:26:44;17.65;;;8.25;;
85506;SDS011;75915;41.988;21.460;2024-03-08T09:29:09;25.55;;;10.00;;
85506;SDS011;75915;41.988;21.460;2024-03-08T09:31:35;17.55;;;8.65;;
85506;SDS011;75915;41.988;21.460;2024-03-08T09:34:03;19.77;;;8.32;;
85506;SDS011;75915;41.988;21.460;2024-03-08T09:36:28;19.48;;;8.65;;
85506;SDS011;75915;41.988;21.460;2024-03-08T09:38:55;21.00;;;10.48;;
85506;SDS011;75915;41.988;21.460;2024-03-08T09:41:21;29.20;;;9.55;;
85506;SDS011;75915;41.988;21.460;2024-03-08T09:46:12;22.55;;;8.95;;
85506;SDS011;75915;41.988;21.460;2024-03-08T09:48:40;15.02;;;7.90;;
85506;SDS011;75915;41.988;21.460;2024-03-08T09:51:06;17.88;;;7.88;;
85506;SDS011;75915;41.988;21.460;2024-03-08T09:53:33;18.23;;;8.70;;
85506;SDS011;75915;41.988;21.460;2024-03-08T09:55:58;26.80;;;8.63;;
85506;SDS011;75915;41.988;21.460;2024-03-08T09:58:24;19.15;;;7.63;;
85506;SDS011;75915;41.988;21.460;2024-03-08T10:00:52;21.80;;;9.20;;
85506;SDS011;75915;41.988;21.460;2024-03-08T10:03:21;17.95;;;8.20;;
85506;SDS011;75915;41.988;21.460;2024-03-08T10:05:48;18.77;;;8.32;;
85506;SDS011;75915;41.988;21.460;2024-03-08T10:08:13;14.50;;;7.43;;
85506;SDS011;75915;41.988;21.460;2024-03-08T10:10:39;14.23;;;7.70;;
85506;SDS011;75915;41.988;21.460;2024-03-08T10:13:06;16.92;;;7.75;;
85506;SDS011;75915;41.988;21.460;2024-03-08T10:15:32;16.58;;;7.43;;
85506;SDS011;75915;41.988;21.460;2024-03-08T10:17:58;19.08;;;7.03;;
85506;SDS011;75915;41.988;21.460;2024-03-08T10:20:24;17.17;;;7.05;;
85506;SDS011;75915;41.988;21.460;2024-03-08T10:22:51;15.63;;;7.90;;
85506;SDS011;75915;41.988;21.460;2024-03-08T10:25:18;18.40;;;8.50;;
85506;SDS011;75915;41.988;21.460;2024-03-08T10:27:44;17.88;;;6.85;;
85506;SDS011;75915;41.988;21.460;2024-03-08T10:30:15;20.23;;;7.68;;
85506;SDS011;75915;41.988;21.460;2024-03-08T10:32:45;16.23;;;7.47;;
85506;SDS011;75915;41.988;21.460;2024-03-08T10:35:11;16.17;;;6.95;;
85506;SDS011;75915;41.988;21.460;2024-03-08T10:37:48;13.77;;;7.13;;
85506;SDS011;75915;41.988;21.460;2024-03-08T10:40:23;16.65;;;7.13;;
85506;SDS011;75915;41.988;21.460;2024-03-08T10:42:54;15.25;;;7.40;;
85506;SDS011;75915;41.988;21.460;2024-03-08T10:48:09;17.98;;;8.23;;
85506;SDS011;75915;41.988;21.460;2024-03-08T10:50:38;16.30;;;7.47;;
85506;SDS011;75915;41.988;21.460;2024-03-08T10:53:06;14.63;;;6.60;;
85506;SDS011;75915;41.988;21.460;2024-03-08T10:55:34;15.52;;;6.13;;
85506;SDS011;75915;41.988;21.460;2024-03-08T10:58:04;13.13;;;6.63;;
85506;SDS011;75915;41.988;21.460;2024-03-08T11:00:32;10.30;;;6.45;;
85506;SDS011;75915;41.988;21.460;2024-03-08T11:02:57;11.77;;;6.30;;
85506;SDS011;75915;41.988;21.460;2024-03-08T11:05:32;11.48;;;6.40;;
85506;SDS011;75915;41.988;21.460;2024-03-08T11:08:26;11.20;;;6.15;;
85506;SDS011;75915;41.988;21.460;2024-03-08T11:10:53;10.10;;;5.07;;
85506;SDS011;75915;41.988;21.460;2024-03-08T11:13:37;15.23;;;5.72;;
85506;SDS011;75915;41.988;21.460;2024-03-08T11:16:12;14.25;;;6.50;;
85506;SDS011;75915;41.988;21.460;2024-03-08T11:19:01;12.73;;;5.20;;
85506;SDS011;75915;41.988;21.460;2024-03-08T11:21:31;12.90;;;5.80;;
85506;SDS011;75915;41.988;21.460;2024-03-08T11:24:08;13.27;;;6.15;;
85506;SDS011;75915;41.988;21.460;2024-03-08T11:26:40;14.10;;;5.25;;
85506;SDS011;75915;41.988;21.460;2024-03-08T11:32:09;10.30;;;5.35;;
85506;SDS011;75915;41.988;21.460;2024-03-08T11:34:36;10.32;;;4.80;;
85506;SDS011;75915;41.988;21.460;2024-03-08T11:37:14;8.93;;;4.57;;
85506;SDS011;75915;41.988;21.460;2024-03-08T11:39:57;11.05;;;4.78;;
85506;SDS011;75915;41.988;21.460;2024-03-08T11:42:24;9.48;;;4.03;;
85506;SDS011;75915;41.988;21.460;2024-03-08T11:44:58;8.63;;;3.97;;
85506;SDS011;75915;41.988;21.460;2024-03-08T11:47:25;7.90;;;4.22;;
85506;SDS011;75915;41.988;21.460;2024-03-08T11:49:51;9.93;;;4.60;;
85506;SDS011;75915;41.988;21.460;2024-03-08T11:52:18;8.10;;;3.83;;
85506;SDS011;75915;41.988;21.460;2024-03-08T11:54:48;7.55;;;4.32;;
85506;SDS011;75915;41.988;21.460;2024-03-08T11:57:22;9.43;;;3.75;;
85506;SDS011;75915;41.988;21.460;2024-03-08T11:59:54;8.13;;;3.97;;
85506;SDS011;75915;41.988;21.460;2024-03-08T12:02:34;11.35;;;4.53;;
85506;SDS011;75915;41.988;21.460;2024-03-08T12:05:03;7.25;;;3.67;;
85506;SDS011;75915;41.988;21.460;2024-03-08T12:07:29;8.30;;;4.55;;
85506;SDS011;75915;41.988;21.460;2024-03-08T12:13:02;7.15;;;4.10;;
85506;SDS011;75915;41.988;21.460;2024-03-08T12:15:28;8.13;;;3.63;;
85506;SDS011;75915;41.988;21.460;2024-03-08T12:17:54;7.18;;;3.45;;
85506;SDS011;75915;41.988;21.460;2024-03-08T12:20:24;7.70;;;2.85;;
85506;SDS011;75915;41.988;21.460;2024-03-08T12:22:54;6.10;;;3.40;;
85506;SDS011;75915;41.988;21.460;2024-03-08T12:25:22;6.82;;;2.97;;
85506;SDS011;75915;41.988;21.460;2024-03-08T12:27:47;5.78;;;3.00;;
85506;SDS011;75915;41.988;21.460;2024-03-08T12:30:20;7.30;;;2.95;;
85506;SDS011;75915;41.988;21.460;2024-03-08T12:32:54;5.97;;;2.65;;
85506;SDS011;75915;41.988;21.460;2024-03-08T12:35:29;4.35;;;2.30;;
85506;SDS011;75915;41.988;21.460;2024-03-08T12:40:27;4.53;;;2.30;;
85506;SDS011;75915;41.988;21.460;2024-03-08T12:42:58;6.82;;;2.50;;
85506;SDS011;75915;41.988;21.460;2024-03-08T12:45:24;7.53;;;3.38;;
85506;SDS011;75915;41.988;21.460;2024-03-08T12:47:53;4.03;;;2.53;;
85506;SDS011;75915;41.988;21.460;2024-03-08T12:50:22;6.05;;;2.60;;
85506;SDS011;75915;41.988;21.460;2024-03-08T12:52:49;4.20;;;2.38;;
85506;SDS011;75915;41.988;21.460;2024-03-08T12:55:16;5.00;;;2.60;;
85506;SDS011;75915;41.988;21.460;2024-03-08T12:57:43;6.45;;;2.70;;
85506;SDS011;75915;41.988;21.460;2024-03-08T13:06:52;4.97;;;2.50;;
85506;SDS011;75915;41.988;21.460;2024-03-08T13:09:19;5.88;;;2.25;;
85506;SDS011;75915;41.988;21.460;2024-03-08T13:11:45;6.72;;;2.90;;
85506;SDS011;75915;41.988;21.460;2024-03-08T13:14:11;4.57;;;2.30;;
85506;SDS011;75915;41.988;21.460;2024-03-08T13:16:37;5.10;;;2.60;;
85506;SDS011;75915;41.988;21.460;2024-03-08T13:19:02;7.18;;;2.60;;
85506;SDS011;75915;41.988;21.460;2024-03-08T13:21:28;5.13;;;2.25;;
85506;SDS011;75915;41.988;21.460;2024-03-08T13:23:55;7.30;;;2.42;;
85506;SDS011;75915;41.988;21.460;2024-03-08T13:26:25;5.13;;;2.00;;
85506;SDS011;75915;41.988;21.460;2024-03-08T13:28:57;6.35;;;2.50;;
85506;SDS011;75915;41.988;21.460;2024-03-08T13:31:24;9.02;;;2.47;;
85506;SDS011;75915;41.988;21.460;2024-03-08T13:33:50;4.03;;;2.25;;
85506;SDS011;75915;41.988;21.460;2024-03-08T13:36:16;3.90;;;2.15;;
85506;SDS011;75915;41.988;21.460;2024-03-08T13:38:46;5.45;;;2.75;;
85506;SDS011;75915;41.988;21.460;2024-03-08T13:41:13;5.05;;;2.40;;
85506;SDS011;75915;41.988;21.460;2024-03-08T13:43:41;4.57;;;2.28;;
85506;SDS011;75915;41.988;21.460;2024-03-08T13:46:08;4.03;;;2.28;;
85506;SDS011;75915;41.988;21.460;2024-03-08T13:48:35;4.43;;;2.38;;
85506;SDS011;75915;41.988;21.460;2024-03-08T13:51:02;6.63;;;2.67;;
85506;SDS011;75915;41.988;21.460;2024-03-08T13:53:30;7.93;;;2.50;;
85506;SDS011;75915;41.988;21.460;2024-03-08T13:55:56;5.38;;;2.30;;
85506;SDS011;75915;41.988;21.460;2024-03-08T13:58:22;5.22;;;2.30;;
85506;SDS011;75915;41.988;21.460;2024-03-08T14:00:47;4.38;;;2.30;;
85506;SDS011;75915;41.988;21.460;2024-03-08T14:03:17;6.72;;;2.80;;
85506;SDS011;75915;41.988;21.460;2024-03-08T14:05:43;4.72;;;2.25;;
85506;SDS011;75915;41.988;21.460;2024-03-08T14:08:10;3.40;;;1.77;;
85506;SDS011;75915;41.988;21.460;2024-03-08T14:10:38;4.47;;;2.20;;
85506;SDS011;75915;41.988;21.460;2024-03-08T14:13:04;8.55;;;2.33;;
85506;SDS011;75915;41.988;21.460;2024-03-08T14:15:32;10.13;;;2.33;;
85506;SDS011;75915;41.988;21.460;2024-03-08T14:17:58;6.55;;;2.60;;
85506;SDS011;75915;41.988;21.460;2024-03-08T14:20:24;3.47;;;2.13;;
85506;SDS011;75915;41.988;21.460;2024-03-08T14:22:55;4.43;;;2.20;;
85506;SDS011;75915;41.988;21.460;2024-03-08T14:25:21;3.72;;;1.77;;
85506;SDS011;75915;41.988;21.460;2024-03-08T14:27:49;4.35;;;2.22;;
85506;SDS011;75915;41.988;21.460;2024-03-08T14:30:18;4.97;;;2.42;;
85506;SDS011;75915;41.988;21.460;2024-03-08T14:33:04;7.55;;;2.20;;
85506;SDS011;75915;41.988;21.460;2024-03-08T14:35:40;4.15;;;2.15;;
85506;SDS011;75915;41.988;21.460;2024-03-08T14:38:07;9.55;;;2.90;;
85506;SDS011;75915;41.988;21.460;2024-03-08T14:40:36;4.15;;;2.70;;
85506;SDS011;75915;41.988;21.460;2024-03-08T14:43:03;4.28;;;2.13;;
85506;SDS011;75915;41.988;21.460;2024-03-08T14:45:29;3.90;;;1.88;;
85506;SDS011;75915;41.988;21.460;2024-03-08T14:47:55;5.78;;;2.60;;
85506;SDS011;75915;41.988;21.460;2024-03-08T14:50:27;4.25;;;2.17;;
85506;SDS011;75915;41.988;21.460;2024-03-08T14:52:53;5.45;;;2.30;;
85506;SDS011;75915;41.988;21.460;2024-03-08T14:55:20;5.28;;;2.40;;
85506;SDS011;75915;41.988;21.460;2024-03-08T14:57:48;7.82;;;2.90;;
85506;SDS011;75915;41.988;21.460;2024-03-08T15:00:17;5.28;;;2.55;;
85506;SDS011;75915;41.988;21.460;2024-03-08T15:03:00;7.53;;;2.72;;
85506;SDS011;75915;41.988;21.460;2024-03-08T15:05:34;5.80;;;2.63;;